createdAt,value
2019-05-21T00:00:27.789Z,7.62
2019-05-21T00:02:56.228Z,6.25
2019-05-21T00:05:24.659Z,7.37
2019-05-21T00:07:53.109Z,6.40
2019-05-21T00:10:21.540Z,7.62
2019-05-21T00:12:49.976Z,7.03
2019-05-21T00:15:18.549Z,9.30
2019-05-21T00:17:46.965Z,9.78
2019-05-21T00:20:15.837Z,7.78
2019-05-21T00:22:44.271Z,9.48
2019-05-21T00:25:16.907Z,10.63
2019-05-21T00:27:43.318Z,8.33
2019-05-21T00:30:48.221Z,8.20
2019-05-21T00:33:52.991Z,8.75
2019-05-21T00:36:59.525Z,9.20
2019-05-21T00:40:04.564Z,8.85
2019-05-21T00:42:36.140Z,9.68
2019-05-21T00:45:08.011Z,7.62
2019-05-21T00:47:36.492Z,7.78
2019-05-21T00:50:08.024Z,10.90
2019-05-21T00:52:36.452Z,8.18
2019-05-21T00:55:06.223Z,7.78
2019-05-21T00:57:34.643Z,8.50
2019-05-21T01:00:03.665Z,8.35
2019-05-21T01:02:32.184Z,9.03
2019-05-21T01:05:01.652Z,8.08
2019-05-21T01:07:30.227Z,9.45
2019-05-21T01:09:58.662Z,7.53
2019-05-21T01:12:27.101Z,11.28
2019-05-21T01:14:55.547Z,11.33
2019-05-21T01:17:23.971Z,9.90
2019-05-21T01:19:52.401Z,11.95
2019-05-21T01:22:20.835Z,10.03
2019-05-21T01:24:49.269Z,8.48
2019-05-21T01:27:17.691Z,8.15
2019-05-21T01:29:46.128Z,9.20
2019-05-21T01:32:14.559Z,7.92
2019-05-21T01:34:43.010Z,7.28
2019-05-21T01:37:11.428Z,8.63
2019-05-21T01:39:39.868Z,6.53
2019-05-21T01:42:08.313Z,9.98
2019-05-21T01:44:36.743Z,6.70
2019-05-21T01:47:05.186Z,8.55
2019-05-21T01:49:33.600Z,6.72
2019-05-21T01:52:02.048Z,8.20
2019-05-21T01:54:30.467Z,8.05
2019-05-21T01:56:58.980Z,7.58
2019-05-21T01:59:27.404Z,8.00
2019-05-21T02:01:55.844Z,6.95
2019-05-21T02:04:24.341Z,7.28
2019-05-21T02:06:52.848Z,9.08
2019-05-21T02:09:21.276Z,6.67
2019-05-21T02:11:49.712Z,7.50
2019-05-21T02:14:18.143Z,5.87
2019-05-21T02:16:46.580Z,6.20
2019-05-21T02:19:15.032Z,9.20
2019-05-21T02:21:43.528Z,10.00
2019-05-21T02:24:11.953Z,7.55
2019-05-21T02:26:40.389Z,6.85
2019-05-21T02:29:08.820Z,8.93
2019-05-21T02:31:37.277Z,9.08
2019-05-21T02:34:05.716Z,7.65
2019-05-21T02:36:34.206Z,10.25
2019-05-21T02:39:04.289Z,7.47
2019-05-21T02:41:32.733Z,6.15
2019-05-21T02:44:01.174Z,7.65
2019-05-21T02:46:29.613Z,8.20
2019-05-21T02:48:58.039Z,8.30
2019-05-21T02:51:26.486Z,8.13
2019-05-21T02:53:54.925Z,8.10
2019-05-21T02:56:23.340Z,9.63
2019-05-21T02:58:51.791Z,11.20
2019-05-21T03:01:24.250Z,9.83
2019-05-21T03:03:52.698Z,8.28
2019-05-21T03:06:21.116Z,9.58
2019-05-21T03:08:49.558Z,10.13
2019-05-21T03:11:18.232Z,9.10
2019-05-21T03:13:46.666Z,8.20
2019-05-21T03:16:15.092Z,7.65
2019-05-21T03:18:43.540Z,7.03
2019-05-21T03:21:12.033Z,9.20
2019-05-21T03:23:40.479Z,8.25
2019-05-21T03:26:08.900Z,7.70
2019-05-21T03:28:37.688Z,7.42
2019-05-21T03:31:06.154Z,7.78
2019-05-21T03:33:34.641Z,11.08
2019-05-21T03:36:03.082Z,10.98
2019-05-21T03:38:31.519Z,7.78
2019-05-21T03:40:59.936Z,6.97
2019-05-21T03:43:28.385Z,7.67
2019-05-21T03:45:56.824Z,9.75
2019-05-21T03:48:25.270Z,10.43
2019-05-21T03:50:54.360Z,9.48
2019-05-21T03:53:22.795Z,10.10
2019-05-21T03:55:51.256Z,10.75
2019-05-21T03:58:20.316Z,10.78
2019-05-21T04:00:48.748Z,10.98
2019-05-21T04:03:17.186Z,9.98
2019-05-21T04:05:45.625Z,10.93
2019-05-21T04:08:14.078Z,10.80
2019-05-21T04:10:42.526Z,9.63
2019-05-21T04:13:10.968Z,11.33
2019-05-21T04:15:45.215Z,11.88
2019-05-21T04:18:15.285Z,10.60
2019-05-21T04:20:43.768Z,11.57
2019-05-21T04:23:12.460Z,12.37
2019-05-21T04:25:40.882Z,12.35
2019-05-21T04:28:09.346Z,10.35
2019-05-21T04:30:37.789Z,9.85
2019-05-21T04:33:06.211Z,11.30
2019-05-21T04:35:34.654Z,11.85
2019-05-21T04:38:03.079Z,14.40
2019-05-21T04:40:31.538Z,13.72
2019-05-21T04:43:02.137Z,13.68
2019-05-21T04:45:30.220Z,15.05
2019-05-21T04:47:58.637Z,13.93
2019-05-21T04:50:27.081Z,13.08
2019-05-21T04:52:55.513Z,12.50
2019-05-21T04:55:23.946Z,11.83
2019-05-21T04:57:52.386Z,11.00
2019-05-21T05:00:20.889Z,14.63
2019-05-21T05:02:49.351Z,15.15
2019-05-21T05:05:18.177Z,15.03
2019-05-21T05:07:46.600Z,14.43
2019-05-21T05:10:15.125Z,14.10
2019-05-21T05:12:43.553Z,19.32
2019-05-21T05:15:12.466Z,20.52
2019-05-21T05:17:41.008Z,18.55
2019-05-21T05:20:09.882Z,15.32
2019-05-21T05:22:38.342Z,15.45
2019-05-21T05:25:07.012Z,15.40
2019-05-21T05:27:35.436Z,17.32
2019-05-21T05:30:08.688Z,19.62
2019-05-21T05:32:37.121Z,16.12
2019-05-21T05:35:06.095Z,13.22
2019-05-21T05:37:43.200Z,14.68
2019-05-21T05:40:08.722Z,14.30
2019-05-21T05:42:37.232Z,14.93
2019-05-21T05:45:07.409Z,14.25
2019-05-21T05:47:36.162Z,16.52
2019-05-21T05:50:09.793Z,14.30
2019-05-21T05:52:38.249Z,12.88
2019-05-21T05:55:07.430Z,16.80
2019-05-21T05:57:35.856Z,14.40
2019-05-21T06:00:07.013Z,12.68
2019-05-21T06:02:35.435Z,13.18
2019-05-21T06:05:05.215Z,14.00
2019-05-21T06:07:33.653Z,12.55
2019-05-21T06:10:02.270Z,13.10
2019-05-21T06:12:30.913Z,12.15
2019-05-21T06:14:59.393Z,10.40
2019-05-21T06:17:27.885Z,9.50
2019-05-21T06:19:56.305Z,8.58
2019-05-21T06:22:24.745Z,13.40
2019-05-21T06:24:53.179Z,11.28
2019-05-21T06:27:21.615Z,17.48
2019-05-21T06:29:50.054Z,13.53
2019-05-21T06:32:18.511Z,11.22
2019-05-21T06:34:48.787Z,8.25
2019-05-21T06:37:17.165Z,10.75
2019-05-21T06:39:45.595Z,11.75
2019-05-21T06:42:14.063Z,16.20
2019-05-21T06:44:42.947Z,10.60
2019-05-21T06:47:11.393Z,10.68
2019-05-21T06:49:39.873Z,7.20
2019-05-21T06:52:08.311Z,7.58
2019-05-21T06:54:36.751Z,9.50
2019-05-21T06:57:05.190Z,6.62
2019-05-21T06:59:33.615Z,7.50
2019-05-21T07:02:02.064Z,6.67
2019-05-21T07:04:30.481Z,7.50
2019-05-21T07:06:58.920Z,7.60
2019-05-21T07:09:27.350Z,7.10
2019-05-21T07:11:55.787Z,8.08
2019-05-21T07:14:24.214Z,5.50
2019-05-21T07:16:52.679Z,6.65
2019-05-21T07:19:21.164Z,7.03
2019-05-21T07:21:49.629Z,7.37
2019-05-21T07:24:18.051Z,5.70
2019-05-21T07:26:46.488Z,5.33
2019-05-21T07:29:14.953Z,5.65
2019-05-21T07:31:43.381Z,5.33
2019-05-21T07:34:31.166Z,5.83
2019-05-21T07:36:59.599Z,4.55
2019-05-21T07:39:28.049Z,5.67
2019-05-21T07:41:59.093Z,4.53
2019-05-21T07:44:27.597Z,4.80
2019-05-21T07:46:56.035Z,5.75
2019-05-21T07:49:24.457Z,4.53
2019-05-21T07:51:52.913Z,4.58
2019-05-21T07:54:21.664Z,5.03
2019-05-21T07:56:50.115Z,3.80
2019-05-21T07:59:18.580Z,3.98
2019-05-21T08:01:47.099Z,3.92
2019-05-21T08:04:15.529Z,4.95
2019-05-21T08:06:44.154Z,8.23
2019-05-21T08:09:14.593Z,4.67
2019-05-21T08:11:46.451Z,3.40
2019-05-21T08:14:13.387Z,4.67
2019-05-21T08:16:41.845Z,3.92
2019-05-21T08:19:10.994Z,13.40
2019-05-21T08:21:39.414Z,5.10
2019-05-21T08:24:07.863Z,6.92
2019-05-21T08:26:36.300Z,4.97
2019-05-21T08:29:04.738Z,3.80
2019-05-21T08:31:33.251Z,4.25
2019-05-21T08:34:01.684Z,4.08
2019-05-21T08:36:30.111Z,3.85
2019-05-21T08:38:58.551Z,4.08
2019-05-21T08:41:27.004Z,4.47
2019-05-21T08:43:55.455Z,3.52
2019-05-21T08:46:23.880Z,3.00
2019-05-21T08:48:52.331Z,4.30
2019-05-21T08:51:20.856Z,3.17
2019-05-21T08:53:49.342Z,4.42
2019-05-21T08:56:17.851Z,3.83
2019-05-21T08:58:46.294Z,3.27
2019-05-21T09:01:14.730Z,3.80
2019-05-21T09:03:43.176Z,2.95
2019-05-21T09:06:11.590Z,3.30
2019-05-21T09:08:40.024Z,2.30
2019-05-21T09:11:08.459Z,2.50
2019-05-21T09:13:36.899Z,3.77
2019-05-21T09:16:05.395Z,1.80
2019-05-21T09:18:33.852Z,2.10
2019-05-21T09:21:02.272Z,2.40
2019-05-21T09:23:30.721Z,4.25
2019-05-21T09:25:59.204Z,2.52
2019-05-21T09:28:27.646Z,2.30
2019-05-21T09:30:56.064Z,4.00
2019-05-21T09:33:24.515Z,3.20
2019-05-21T09:35:52.954Z,2.40
2019-05-21T09:38:21.393Z,2.17
2019-05-21T09:40:49.824Z,2.42
2019-05-21T09:43:18.267Z,2.20
2019-05-21T09:45:46.696Z,3.15
2019-05-21T09:48:15.122Z,2.17
2019-05-21T09:50:43.564Z,2.98
2019-05-21T09:53:11.998Z,2.20
2019-05-21T09:55:40.440Z,2.30
2019-05-21T09:58:10.527Z,3.50
2019-05-21T10:00:49.884Z,2.30
2019-05-21T10:03:19.979Z,2.30
2019-05-21T10:05:48.476Z,1.95
2019-05-21T10:08:16.926Z,3.15
2019-05-21T10:10:45.359Z,4.80
2019-05-21T10:13:13.809Z,2.10
2019-05-21T10:15:42.239Z,2.80
2019-05-21T10:18:10.701Z,2.33
2019-05-21T10:20:39.124Z,2.50
2019-05-21T10:23:07.542Z,3.15
2019-05-21T10:25:36.098Z,1.87
2019-05-21T10:28:04.738Z,1.80
2019-05-21T10:30:33.190Z,1.60
2019-05-21T10:33:01.672Z,1.40
2019-05-21T10:35:30.125Z,2.10
2019-05-21T10:37:58.867Z,1.57
2019-05-21T10:40:27.311Z,1.50
2019-05-21T10:42:55.742Z,4.72
2019-05-21T10:45:24.187Z,3.20
2019-05-21T10:47:52.645Z,1.85
2019-05-21T10:50:21.178Z,2.50
2019-05-21T10:52:49.598Z,5.12
2019-05-21T10:55:18.063Z,1.50
2019-05-21T10:57:46.487Z,2.35
2019-05-21T11:00:23.528Z,1.65
2019-05-21T11:02:56.394Z,2.37
2019-05-21T11:05:35.293Z,2.02
2019-05-21T11:08:22.886Z,2.17
2019-05-21T11:10:34.229Z,1.55
2019-05-21T11:13:02.720Z,3.90
2019-05-21T11:15:31.255Z,1.67
2019-05-21T11:18:10.389Z,4.37
2019-05-21T11:20:29.924Z,1.95
2019-05-21T11:22:58.560Z,1.50
2019-05-21T11:25:27.121Z,1.67
2019-05-21T11:27:55.539Z,2.72
2019-05-21T11:30:24.045Z,2.55
2019-05-21T11:32:52.470Z,2.40
2019-05-21T11:35:21.392Z,1.72
2019-05-21T11:37:49.824Z,1.62
2019-05-21T11:40:18.919Z,2.17
2019-05-21T11:42:47.341Z,2.87
2019-05-21T11:45:31.067Z,1.62
2019-05-21T11:47:46.888Z,1.95
2019-05-21T11:50:16.853Z,2.17
2019-05-21T11:52:45.660Z,2.37
2019-05-21T11:55:14.355Z,1.77
2019-05-21T11:57:42.843Z,2.55
2019-05-21T12:00:12.196Z,1.80
2019-05-21T12:02:40.641Z,1.60
2019-05-21T12:05:09.417Z,1.90
2019-05-21T12:07:37.875Z,2.58
2019-05-21T12:10:07.508Z,1.87
2019-05-21T12:12:35.944Z,2.60
2019-05-21T12:15:06.607Z,2.20
2019-05-21T12:17:35.047Z,1.98
2019-05-21T12:20:07.564Z,2.50
2019-05-21T12:22:35.988Z,2.45
2019-05-21T12:25:05.865Z,1.85
2019-05-21T12:27:34.293Z,2.60
2019-05-21T12:30:03.401Z,2.90
2019-05-21T12:32:31.833Z,4.45
2019-05-21T12:35:00.296Z,1.77
2019-05-21T12:37:28.732Z,1.85
2019-05-21T12:39:57.179Z,2.05
2019-05-21T12:42:25.618Z,2.87
2019-05-21T12:44:54.432Z,2.60
2019-05-21T12:47:22.886Z,3.02
2019-05-21T12:49:51.319Z,2.52
2019-05-21T12:52:19.762Z,3.05
2019-05-21T12:54:48.185Z,2.27
2019-05-21T12:57:16.629Z,3.20
2019-05-21T12:59:45.067Z,2.98
2019-05-21T13:02:13.510Z,4.78
2019-05-21T13:04:41.958Z,3.27
2019-05-21T13:07:11.006Z,3.62
2019-05-21T13:09:39.437Z,2.27
2019-05-21T13:12:07.875Z,2.90
2019-05-21T13:14:36.334Z,4.50
2019-05-21T13:17:04.924Z,5.75
2019-05-21T13:19:33.359Z,3.98
2019-05-21T13:22:01.793Z,4.10
2019-05-21T13:24:30.227Z,2.37
2019-05-21T13:26:58.661Z,2.45
2019-05-21T13:29:27.107Z,3.72
2019-05-21T13:31:55.816Z,2.47
2019-05-21T13:34:24.256Z,2.10
2019-05-21T13:36:52.740Z,3.12
2019-05-21T13:39:21.183Z,2.80
2019-05-21T13:41:49.708Z,3.42
2019-05-21T13:44:18.154Z,2.87
2019-05-21T13:46:46.579Z,2.62
2019-05-21T13:49:15.075Z,3.25
2019-05-21T13:51:43.492Z,2.70
2019-05-21T13:54:12.014Z,3.08
2019-05-21T13:56:40.472Z,2.40
2019-05-21T13:59:09.127Z,2.92
2019-05-21T14:01:41.251Z,2.58
2019-05-21T14:04:07.719Z,4.58
2019-05-21T14:06:36.151Z,2.80
2019-05-21T14:09:06.053Z,2.27
2019-05-21T14:11:34.874Z,2.20
2019-05-21T14:14:03.319Z,3.05
2019-05-21T14:16:34.751Z,4.30
2019-05-21T14:19:02.663Z,2.95
2019-05-21T14:21:31.098Z,2.55
2019-05-21T14:23:59.536Z,3.45
2019-05-21T14:26:27.975Z,4.00
2019-05-21T14:28:56.454Z,2.12
2019-05-21T14:31:24.881Z,2.67
2019-05-21T14:33:53.343Z,2.33
2019-05-21T14:36:21.813Z,2.05
2019-05-21T14:38:50.346Z,2.15
2019-05-21T14:41:18.878Z,2.83
2019-05-21T14:43:47.318Z,2.35
2019-05-21T14:46:15.780Z,6.70
2019-05-21T14:48:44.226Z,5.90
2019-05-21T14:51:13.503Z,2.40
2019-05-21T14:53:42.202Z,2.10
2019-05-21T14:56:10.639Z,5.33
2019-05-21T14:58:39.110Z,6.92
2019-05-21T15:01:07.525Z,2.12
2019-05-21T15:03:36.003Z,2.30
2019-05-21T15:06:04.476Z,3.00
2019-05-21T15:08:32.937Z,4.90
2019-05-21T15:11:01.393Z,2.30
2019-05-21T15:13:29.829Z,3.22
2019-05-21T15:15:58.277Z,5.15
2019-05-21T15:18:26.749Z,3.10
2019-05-21T15:21:06.183Z,13.53
2019-05-21T15:23:34.696Z,17.87
2019-05-21T15:26:03.225Z,7.08
2019-05-21T15:28:31.725Z,6.40
2019-05-21T15:31:00.256Z,4.00
2019-05-21T15:33:28.771Z,3.52
2019-05-21T15:35:57.209Z,3.70
2019-05-21T15:38:25.718Z,3.05
2019-05-21T15:41:09.725Z,2.30
2019-05-21T15:43:24.314Z,1.92
2019-05-21T15:45:52.749Z,4.20
2019-05-21T15:48:25.749Z,2.65
2019-05-21T15:50:51.393Z,2.40
2019-05-21T15:53:19.855Z,4.62
2019-05-21T15:55:48.563Z,2.10
2019-05-21T15:58:16.991Z,2.37
2019-05-21T16:00:45.509Z,2.72
2019-05-21T16:03:14.008Z,3.75
2019-05-21T16:05:42.456Z,3.75
2019-05-21T16:08:10.966Z,4.62
2019-05-21T16:10:39.431Z,2.20
2019-05-21T16:13:07.900Z,3.58
2019-05-21T16:15:36.398Z,3.25
2019-05-21T16:18:05.005Z,4.05
2019-05-21T16:20:33.451Z,2.45
2019-05-21T16:23:01.888Z,3.10
2019-05-21T16:25:30.331Z,2.77
2019-05-21T16:27:58.770Z,3.12
2019-05-21T16:30:27.322Z,3.67
2019-05-21T16:32:55.870Z,3.17
2019-05-21T16:35:24.526Z,20.48
2019-05-21T16:37:53.125Z,13.43
2019-05-21T16:40:21.726Z,11.97
2019-05-21T16:42:50.196Z,13.18
2019-05-21T16:45:18.786Z,3.83
2019-05-21T16:47:47.396Z,4.75
2019-05-21T16:50:16.795Z,3.98
2019-05-21T16:52:45.672Z,4.12
2019-05-21T16:55:14.339Z,13.13
2019-05-21T16:57:42.784Z,14.68
2019-05-21T17:00:13.924Z,6.78
2019-05-21T17:02:42.538Z,3.92
2019-05-21T17:05:11.439Z,2.83
2019-05-21T17:07:39.864Z,2.98
2019-05-21T17:10:09.229Z,3.87
2019-05-21T17:12:37.648Z,2.45
2019-05-21T17:15:07.222Z,2.40
2019-05-21T17:17:35.743Z,2.92
2019-05-21T17:20:06.989Z,6.08
2019-05-21T17:22:35.463Z,4.90
2019-05-21T17:25:05.987Z,2.75
2019-05-21T17:27:34.427Z,4.72
2019-05-21T17:30:03.230Z,3.05
2019-05-21T17:32:31.665Z,2.55
2019-05-21T17:35:00.103Z,4.65
2019-05-21T17:37:28.544Z,5.90
2019-05-21T17:39:56.986Z,5.50
2019-05-21T17:42:27.060Z,3.65
2019-05-21T17:44:55.527Z,2.92
2019-05-21T17:47:24.808Z,2.62
2019-05-21T17:49:53.470Z,2.17
2019-05-21T17:52:21.926Z,3.52
2019-05-21T17:54:56.761Z,2.10
2019-05-21T17:57:20.589Z,2.33
2019-05-21T17:59:49.086Z,2.55
2019-05-21T18:02:18.946Z,3.60
2019-05-21T18:04:47.700Z,2.50
2019-05-21T18:07:16.520Z,2.45
2019-05-21T18:09:45.019Z,3.15
2019-05-21T18:12:14.315Z,2.37
2019-05-21T18:14:43.144Z,2.30
2019-05-21T18:17:16.485Z,2.00
2019-05-21T18:19:45.355Z,2.08
2019-05-21T18:22:15.506Z,2.67
2019-05-21T18:24:44.178Z,2.37
2019-05-21T18:27:13.791Z,2.87
2019-05-21T18:29:42.321Z,2.20
2019-05-21T18:32:10.818Z,2.12
2019-05-21T18:34:39.349Z,2.67
2019-05-21T18:37:07.882Z,2.83
2019-05-21T18:39:37.466Z,3.85
2019-05-21T18:42:19.648Z,3.25
2019-05-21T18:44:36.098Z,2.50
2019-05-21T18:47:04.686Z,2.22
2019-05-21T18:49:33.150Z,3.10
2019-05-21T18:52:01.585Z,2.35
2019-05-21T18:54:30.035Z,4.62
2019-05-21T18:56:58.458Z,5.47
2019-05-21T18:59:26.896Z,5.08
2019-05-21T19:01:55.330Z,6.58
2019-05-21T19:04:23.784Z,6.03
2019-05-21T19:06:52.233Z,3.50
2019-05-21T19:09:20.677Z,3.50
2019-05-21T19:11:49.152Z,5.62
2019-05-21T19:14:17.668Z,3.45
2019-05-21T19:16:46.148Z,5.55
2019-05-21T19:19:14.629Z,2.92
2019-05-21T19:21:43.320Z,3.15
2019-05-21T19:24:11.769Z,4.15
2019-05-21T19:26:42.115Z,4.35
2019-05-21T19:29:10.496Z,4.40
2019-05-21T19:31:38.992Z,4.55
2019-05-21T19:34:07.437Z,7.60
2019-05-21T19:36:35.864Z,8.60
2019-05-21T19:39:06.330Z,4.47
2019-05-21T19:41:34.764Z,5.00
2019-05-21T19:44:03.202Z,4.97
2019-05-21T19:46:31.629Z,4.60
2019-05-21T19:49:00.059Z,4.67
2019-05-21T19:51:28.556Z,5.47
2019-05-21T19:53:56.988Z,6.00
2019-05-21T19:56:25.433Z,7.20
2019-05-21T19:58:53.883Z,8.78
2019-05-21T20:01:22.493Z,13.45
2019-05-21T20:03:50.983Z,14.33
2019-05-21T20:06:19.955Z,12.95
2019-05-21T20:08:48.476Z,12.70
2019-05-21T20:11:17.375Z,14.65
2019-05-21T20:13:45.829Z,18.05
2019-05-21T20:16:14.804Z,15.65
2019-05-21T20:18:43.243Z,15.88
2019-05-21T20:21:13.327Z,14.13
2019-05-21T20:23:42.231Z,19.40
2019-05-21T20:26:15.444Z,21.77
2019-05-21T20:28:43.952Z,18.55
2019-05-21T20:31:12.850Z,17.40
2019-05-21T20:33:41.634Z,20.92
2019-05-21T20:36:10.725Z,22.62
2019-05-21T20:38:39.829Z,18.73
2019-05-21T20:41:08.398Z,15.90
2019-05-21T20:43:37.186Z,14.95
2019-05-21T20:46:07.436Z,17.25
2019-05-21T20:48:37.348Z,15.72
2019-05-21T20:51:06.357Z,14.80
2019-05-21T20:53:34.861Z,17.57
2019-05-21T20:56:03.388Z,19.67
2019-05-21T20:58:32.257Z,16.67
2019-05-21T21:01:05.099Z,13.62
2019-05-21T21:03:34.714Z,15.40
2019-05-21T21:06:03.629Z,17.77
2019-05-21T21:08:33.703Z,17.40
2019-05-21T21:11:03.513Z,20.00
2019-05-21T21:13:32.780Z,21.90
2019-05-21T21:16:03.066Z,18.35
2019-05-21T21:18:31.837Z,19.90
2019-05-21T21:21:00.348Z,21.23
2019-05-21T21:23:30.111Z,19.75
2019-05-21T21:25:58.852Z,20.32
2019-05-21T21:28:27.358Z,20.00
2019-05-21T21:30:57.513Z,23.05
2019-05-21T21:33:25.944Z,19.42
2019-05-21T21:35:54.385Z,21.27
2019-05-21T21:38:24.632Z,21.73
2019-05-21T21:40:53.149Z,23.60
2019-05-21T21:43:21.863Z,20.52
2019-05-21T21:45:50.577Z,22.52
2019-05-21T21:48:19.888Z,22.75
2019-05-21T21:50:48.617Z,22.15
2019-05-21T21:53:17.117Z,20.85
2019-05-21T21:55:45.555Z,22.85
2019-05-21T21:58:14.053Z,22.48
2019-05-21T22:00:59.148Z,25.23
2019-05-21T22:03:32.697Z,25.95
2019-05-21T22:06:02.436Z,22.17
2019-05-21T22:08:31.396Z,23.30
2019-05-21T22:11:00.294Z,22.70
2019-05-21T22:13:28.979Z,25.45
2019-05-21T22:15:58.149Z,20.72
2019-05-21T22:18:27.416Z,26.37
2019-05-21T22:20:56.314Z,23.15
2019-05-21T22:23:24.748Z,25.15
2019-05-21T22:25:53.253Z,26.73
2019-05-21T22:28:21.960Z,27.13
2019-05-21T22:30:50.398Z,29.42
2019-05-21T22:33:19.384Z,27.85
2019-05-21T22:35:47.915Z,25.72
2019-05-21T22:38:16.347Z,29.07
2019-05-21T22:40:44.947Z,25.88
2019-05-21T22:43:13.460Z,29.30
2019-05-21T22:45:41.888Z,26.52
2019-05-21T22:48:10.328Z,27.35
2019-05-21T22:50:38.830Z,26.97
2019-05-21T22:53:08.139Z,25.77
2019-05-21T22:55:37.319Z,29.35
2019-05-21T22:58:06.024Z,28.05
2019-05-21T23:00:34.732Z,26.70
2019-05-21T23:03:03.711Z,25.55
2019-05-21T23:05:32.149Z,27.50
2019-05-21T23:08:01.670Z,26.40
2019-05-21T23:10:30.248Z,25.70
2019-05-21T23:12:58.761Z,26.77
2019-05-21T23:15:27.336Z,28.55
2019-05-21T23:17:56.513Z,25.92
2019-05-21T23:20:27.853Z,27.80
2019-05-21T23:22:59.191Z,26.55
2019-05-21T23:25:28.369Z,29.15
2019-05-21T23:27:56.801Z,29.27
2019-05-21T23:30:25.234Z,30.05
2019-05-21T23:32:53.730Z,30.20
2019-05-21T23:35:22.500Z,28.45
2019-05-21T23:37:51.716Z,27.87
2019-05-21T23:40:22.079Z,29.35
2019-05-21T23:42:50.930Z,32.05
2019-05-21T23:45:20.229Z,28.00
2019-05-21T23:47:48.996Z,33.83
2019-05-21T23:50:18.231Z,30.62
2019-05-21T23:52:46.748Z,32.35
2019-05-21T23:55:15.177Z,32.65
2019-05-21T23:57:44.854Z,32.73
